M I D A S
Marine Information and Data Acquisition System
Tripno 1258 of the Zeeleeuw from 2007-02-16 07:38:04 to 2007-02-16 14:00:57
Back to CruiseResearch ActivitiesStationsMapUnderway DataData graphs

EquipmentUnitsComments
TimeDGPSUTC
LatitudeDGPSDM.mWGS84
LongitudeDGPSDM.mWGS84
SpeedMeteo Stationm/sRelative wind speed
DirectionMeteo StationdegRelative wind direction
TemperatureMeteo Stationdeg CelciusAir temperature
PressureMeteo StationPaAtmospheric pressure
HumidityMeteo Station%Relative humidity
Missing or incorrect values are displayed as -999
Metereological data collected by the RV Zeeleeuw from 2007-02-16 07:38:14 to 2007-02-16 14:07:54
Time Latitude Longitude Speed Direction Temperature Pressure Humidity
2007-02-16 07:39 51°13.598 2°56.094 2.3 281 6.3 101400 57
2007-02-16 07:40 51°13.598 2°56.093 3.8 287 6.3 101400 57
2007-02-16 07:41 51°13.598 2°56.093 6.7 353 6.3 101400 56
2007-02-16 07:42 51°13.61 2°56.042 4.1 6 6.3 101410 57
2007-02-16 07:43 51°13.63 2°55.969 3.5 350 6.3 101400 57
2007-02-16 07:44 51°13.656 2°55.891 3.3 348 6.3 101400 57
2007-02-16 07:45 51°13.676 2°55.811 5.5 354 6.3 101390 58
2007-02-16 07:46 51°13.683 2°55.748 5 24 6.3 101390 57
2007-02-16 07:47 51°13.691 2°55.738 4.1 25 6.3 101390 57
2007-02-16 07:48 51°13.748 2°55.716 5 74 6.3 101390 57
2007-02-16 07:49 51°13.839 2°55.632 4.2 79 6.3 101390 56
2007-02-16 07:50 51°13.951 2°55.548 2.7 79 6.4 101390 56
2007-02-16 07:51 51°14.074 2°55.461 2.1 78 6.5 101380 57
2007-02-16 07:52 51°14.193 2°55.356 4.6 79 6.5 101370 56
2007-02-16 07:53 51°14.289 2°55.212 3.8 80 6.7 101370 56
2007-02-16 07:54 51°14.38 2°55.033 2 285 6.6 101380 56
2007-02-16 07:55 51°14.463 2°54.729 8.8 280 6.6 101380 55
2007-02-16 07:56 51°14.424 2°54.376 12.8 287 6.8 101360 54
2007-02-16 07:57 51°14.308 2°54.055 13.5 286 6.9 101320 54
2007-02-16 07:58 51°14.191 2°53.734 12.6 278 7 101310 53
2007-02-16 07:59 51°14.077 2°53.407 11 282 7.1 101310 52
2007-02-16 08:00 51°13.962 2°53.076 14.8 281 7.2 101320 52
2007-02-16 08:01 51°13.848 2°52.744 12.7 282 7.2 101300 52
2007-02-16 08:02 51°13.732 2°52.412 13.7 282 7.2 101320 54
2007-02-16 08:03 51°13.619 2°52.08 13.6 277 7.1 101300 54
2007-02-16 08:04 51°13.507 2°51.747 12.7 284 7.1 101320 54
2007-02-16 08:05 51°13.395 2°51.415 12.9 285 7 101320 56
2007-02-16 08:06 51°13.283 2°51.083 12.6 283 6.9 101330 56
2007-02-16 08:07 51°13.172 2°50.751 13.8 281 6.9 101340 57
2007-02-16 08:08 51°13.061 2°50.418 14.1 278 6.9 101330 57
2007-02-16 08:09 51°12.949 2°50.086 12.9 279 7 101330 58
2007-02-16 08:10 51°12.839 2°49.752 11.9 279 6.8 101320 57
2007-02-16 08:11 51°12.728 2°49.419 12.3 282 6.8 101310 58
2007-02-16 08:12 51°12.617 2°49.086 13 284 6.7 101320 59
2007-02-16 08:13 51°12.507 2°48.754 13.2 286 6.7 101310 58
2007-02-16 08:14 51°12.396 2°48.424 11.9 277 6.8 101310 57
2007-02-16 08:15 51°12.286 2°48.095 13.6 278 6.9 101310 58
2007-02-16 08:16 51°12.18 2°47.766 14 284 6.9 101310 57
2007-02-16 08:17 51°12.082 2°47.429 13.1 282 6.9 101300 58
2007-02-16 08:18 51°11.985 2°47.094 12.1 284 6.9 101300 59
2007-02-16 08:19 51°11.888 2°46.76 12.9 277 6.9 101280 57
2007-02-16 08:20 51°11.791 2°46.427 16.1 280 6.9 101300 59
2007-02-16 08:21 51°11.695 2°46.093 13.4 277 6.9 101280 59
2007-02-16 08:22 51°11.599 2°45.761 13.7 280 6.9 101300 59
2007-02-16 08:23 51°11.504 2°45.428 14.9 285 6.9 101290 58
2007-02-16 08:24 51°11.409 2°45.095 15.3 281 7 101280 58
2007-02-16 08:25 51°11.315 2°44.762 14.9 285 7 101270 59
2007-02-16 08:26 51°11.221 2°44.43 13.5 284 7 101270 58
2007-02-16 08:27 51°11.127 2°44.099 11.6 282 7 101280 59
2007-02-16 08:28 51°11.033 2°43.769 12.4 284 7 101280 60
2007-02-16 08:29 51°10.939 2°43.441 11.9 282 6.9 101260 60
2007-02-16 08:30 51°10.845 2°43.112 16.1 281 6.9 101270 61
2007-02-16 08:31 51°10.751 2°42.785 13.5 280 6.9 101270 61
2007-02-16 08:32 51°10.657 2°42.458 13.3 281 6.9 101270 61
2007-02-16 08:33 51°10.563 2°42.131 13.7 280 6.8 101270 61
2007-02-16 08:34 51°10.47 2°41.807 13.3 283 6.8 101270 61
2007-02-16 08:35 51°10.378 2°41.481 13.2 282 6.7 101270 61
2007-02-16 08:36 51°10.284 2°41.158 13.3 280 6.7 101280 62
2007-02-16 08:37 51°10.193 2°40.834 15.7 283 6.7 101260 62
2007-02-16 08:38 51°10.107 2°40.506 13.5 283 6.7 101270 63
2007-02-16 08:39 51°10.021 2°40.181 13.8 284 6.7 101260 63
2007-02-16 08:40 51°9.934 2°39.855 14.1 278 6.6 101280 63
2007-02-16 08:41 51°9.847 2°39.53 13.7 287 6.6 101270 64
2007-02-16 08:42 51°9.76 2°39.207 15.1 282 6.7 101270 63
2007-02-16 08:43 51°9.674 2°38.883 13.1 287 6.6 101270 62
2007-02-16 08:44 51°9.587 2°38.562 14.1 283 6.7 101260 63
2007-02-16 08:45 51°9.5 2°38.239 12.8 282 6.6 101270 63
2007-02-16 08:46 51°9.414 2°37.916 12.9 284 6.7 101280 63
2007-02-16 08:47 51°9.337 2°37.587 13.6 286 6.7 101280 63
2007-02-16 08:48 51°9.262 2°37.258 14.2 280 6.7 101270 63
2007-02-16 08:49 51°9.188 2°36.928 14.7 278 6.8 101280 63
2007-02-16 08:50 51°9.112 2°36.599 12.8 283 6.8 101270 62
2007-02-16 08:51 51°9.039 2°36.271 12.6 283 6.9 101250 63
2007-02-16 08:52 51°8.973 2°35.979 12.8 281 6.9 101260 63
2007-02-16 08:53 51°9.021 2°35.858 4.8 79 6.8 101310 62
2007-02-16 08:54 51°9.096 2°35.892 10.2 27 7 101290 63
2007-02-16 08:55 51°9.159 2°35.996 10.2 29 6.9 101280 63
2007-02-16 08:56 51°9.237 2°36.105 8.2 28 6.8 101290 63
2007-02-16 08:57 51°9.295 2°36.203 9.5 26 6.8 101270 62
2007-02-16 08:58 51°9.326 2°36.25 11.4 23 6.8 101280 63
2007-02-16 08:59 51°9.339 2°36.254 10.4 25 6.8 101280 62
2007-02-16 09:00 51°9.352 2°36.258 10.2 30 6.9 101280 62
2007-02-16 09:01 51°9.365 2°36.264 10.2 30 6.9 101280 61
2007-02-16 09:02 51°9.379 2°36.27 10.3 30 6.8 101280 61
2007-02-16 09:03 51°9.393 2°36.278 10.8 26 6.9 101280 63
2007-02-16 09:04 51°9.429 2°36.312 7.3 57 6.9 101280 61
2007-02-16 09:05 51°9.487 2°36.256 10.9 306 6.9 101310 61
2007-02-16 09:06 51°9.447 2°36.182 11.4 323 6.9 101280 63
2007-02-16 09:07 51°9.384 2°36.193 12.1 310 6.9 101280 62
2007-02-16 09:08 51°9.337 2°36.193 11.3 305 6.9 101270 62
2007-02-16 09:09 51°9.303 2°36.201 10.2 327 6.9 101280 61
2007-02-16 09:10 51°9.299 2°36.217 10.7 305 6.9 101290 62
2007-02-16 09:11 51°9.309 2°36.227 10.1 307 7 101270 61
2007-02-16 09:12 51°9.325 2°36.239 10.7 306 7 101270 61
2007-02-16 09:13 51°9.342 2°36.254 8.2 305 7 101290 64
2007-02-16 09:14 51°9.359 2°36.269 7.6 304 7 101290 62
2007-02-16 09:15 51°9.376 2°36.284 7.7 308 7 101300 62
2007-02-16 09:16 51°9.38 2°36.265 9.2 309 7 101290 62
2007-02-16 09:17 51°9.334 2°36.231 10.4 306 7 101260 63
2007-02-16 09:18 51°9.272 2°36.192 12.1 305 7 101250 61
2007-02-16 09:19 51°9.258 2°36.182 11.4 309 7.1 101260 62
2007-02-16 09:20 51°9.263 2°36.171 8.8 308 7.1 101280 61
2007-02-16 09:21 51°9.271 2°36.169 11.1 302 7.1 101270 61
2007-02-16 09:22 51°9.282 2°36.175 10.3 304 7.1 101280 63
2007-02-16 09:23 51°9.297 2°36.187 11.1 305 7.2 101260 61
2007-02-16 09:24 51°9.315 2°36.203 10.2 304 7.2 101280 62
2007-02-16 09:25 51°9.336 2°36.221 9.3 306 7.2 101280 63
2007-02-16 09:26 51°9.357 2°36.241 8.2 305 7.1 101290 61
2007-02-16 09:27 51°9.378 2°36.264 7.2 305 7.2 101280 63
2007-02-16 09:28 51°9.4 2°36.288 6.3 304 7.2 101290 62
2007-02-16 09:29 51°9.423 2°36.312 8.2 302 7.2 101300 60
2007-02-16 09:30 51°9.445 2°36.336 7.5 304 7.2 101290 62
2007-02-16 09:31 51°9.468 2°36.36 10.1 305 7.2 101290 61
2007-02-16 09:32 51°9.49 2°36.384 8.4 310 7.2 101290 62
2007-02-16 09:33 51°9.514 2°36.409 8.6 304 7.2 101300 61
2007-02-16 09:34 51°9.538 2°36.435 9.8 305 7.3 101290 61
2007-02-16 09:35 51°9.563 2°36.46 6.2 307 7.3 101280 61
2007-02-16 09:36 51°9.587 2°36.485 9.6 305 7.3 101290 61
2007-02-16 09:37 51°9.611 2°36.511 7.7 308 7.3 101270 60
2007-02-16 09:38 51°9.637 2°36.537 11.7 309 7.3 101290 59
2007-02-16 09:39 51°9.662 2°36.564 7.3 310 7.3 101270 59
2007-02-16 09:40 51°9.683 2°36.576 12.3 303 7.4 101270 60
2007-02-16 09:41 51°9.662 2°36.564 12.4 301 7.4 101230 60
2007-02-16 09:42 51°9.588 2°36.643 14.9 333 7.4 101240 59
2007-02-16 09:43 51°9.49 2°36.749 15 325 7.5 101240 60
2007-02-16 09:44 51°9.398 2°36.838 16.7 334 7.5 101240 59
2007-02-16 09:45 51°9.313 2°36.94 15 327 7.6 101230 60
2007-02-16 09:46 51°9.256 2°37.007 13.2 326 7.6 101240 59
2007-02-16 09:47 51°9.223 2°37.047 13.2 307 7.5 101230 58
2007-02-16 09:48 51°9.193 2°37.062 12.4 304 7.5 101210 58
2007-02-16 09:49 51°9.143 2°37.066 13.1 303 7.5 101200 58
2007-02-16 09:50 51°9.133 2°37.099 11.7 302 7.6 101220 59
2007-02-16 09:51 51°9.148 2°37.122 13.5 306 7.5 101220 58
2007-02-16 09:52 51°9.166 2°37.145 12.2 308 7.6 101250 60
2007-02-16 09:53 51°9.187 2°37.174 6.8 307 7.6 101250 60
2007-02-16 09:54 51°9.209 2°37.206 7.4 305 7.6 101250 60
2007-02-16 09:55 51°9.232 2°37.243 6.6 305 7.6 101270 62
2007-02-16 09:56 51°9.256 2°37.278 9.8 303 7.6 101270 60
2007-02-16 09:57 51°9.279 2°37.312 9.3 280 7.6 101260 59
2007-02-16 09:58 51°9.302 2°37.345 10.7 308 7.7 101260 58
2007-02-16 09:59 51°9.325 2°37.377 11.6 302 7.7 101240 56
2007-02-16 10:00 51°9.347 2°37.409 15.8 306 7.7 101240 58
2007-02-16 10:01 51°9.369 2°37.44 11.4 309 7.8 101230 57
2007-02-16 10:02 51°9.39 2°37.473 7.3 301 7.8 101250 58
2007-02-16 10:03 51°9.412 2°37.505 8 306 7.8 101230 59
2007-02-16 10:04 51°9.435 2°37.536 5.8 306 7.9 101240 58
2007-02-16 10:05 51°9.458 2°37.566 10.8 303 7.9 101240 58
2007-02-16 10:06 51°9.482 2°37.597 10 278 7.9 101250 56
2007-02-16 10:07 51°9.506 2°37.627 9.7 307 8 101230 58
2007-02-16 10:08 51°9.53 2°37.656 13.6 311 8 101240 58
2007-02-16 10:09 51°9.552 2°37.685 12.1 303 8 101250 59
2007-02-16 10:10 51°9.576 2°37.71 9.6 305 8 101250 57
2007-02-16 10:11 51°9.598 2°37.735 15 307 8.1 101250 59
2007-02-16 10:12 51°9.622 2°37.759 13.8 306 8.1 101240 57
2007-02-16 10:13 51°9.647 2°37.783 9 282 8.1 101250 56
2007-02-16 10:14 51°9.672 2°37.807 11 306 8.1 101250 57
2007-02-16 10:15 51°9.697 2°37.832 12.1 304 8.1 101260 55
2007-02-16 10:16 51°9.722 2°37.857 13.4 303 8.2 101250 56
2007-02-16 10:17 51°9.747 2°37.882 11.6 305 8.2 101230 56
2007-02-16 10:18 51°9.772 2°37.909 11.3 306 8.3 101220 56
2007-02-16 10:19 51°9.798 2°37.935 13.3 309 8.3 101240 56
2007-02-16 10:20 51°9.823 2°37.962 16.2 283 8.3 101230 56
2007-02-16 10:21 51°9.848 2°37.988 13.9 309 8.3 101220 56
2007-02-16 10:22 51°9.873 2°38.015 10.1 285 8.3 101240 57
2007-02-16 10:23 51°9.9 2°38.042 9.4 304 8.3 101230 55
2007-02-16 10:24 51°9.928 2°38.069 12.6 278 8.4 101220 56
2007-02-16 10:25 51°9.957 2°38.097 11.4 307 8.4 101220 56
2007-02-16 10:26 51°9.985 2°38.126 9.1 302 8.4 101220 57
2007-02-16 10:27 51°10.014 2°38.155 14.6 304 8.4 101220 56
2007-02-16 10:28 51°10.042 2°38.185 7.1 306 8.5 101210 58
2007-02-16 10:29 51°10.07 2°38.215 11.3 304 8.5 101210 57
2007-02-16 10:30 51°10.098 2°38.244 9.9 304 8.5 101200 57
2007-02-16 10:31 51°10.126 2°38.272 13.1 309 8.5 101190 57
2007-02-16 10:32 51°10.153 2°38.299 14.5 305 8.5 101200 58
2007-02-16 10:33 51°10.181 2°38.327 8.9 305 8.6 101180 57
2007-02-16 10:34 51°10.208 2°38.353 12 303 8.5 101190 59
2007-02-16 10:35 51°10.234 2°38.38 13.6 307 8.5 101190 58
2007-02-16 10:36 51°10.26 2°38.406 12.7 304 8.6 101190 57
2007-02-16 10:37 51°10.286 2°38.431 9 306 8.6 101160 56
2007-02-16 10:38 51°10.312 2°38.456 13.2 308 8.7 101170 57
2007-02-16 10:39 51°10.337 2°38.482 13.3 305 8.6 101170 57
2007-02-16 10:40 51°10.365 2°38.508 7.9 305 8.7 101170 56
2007-02-16 10:41 51°10.391 2°38.534 16 305 8.7 101180 56
2007-02-16 10:42 51°10.418 2°38.559 16.6 308 8.7 101190 55
2007-02-16 10:43 51°10.444 2°38.584 12.9 305 8.8 101170 56
2007-02-16 10:44 51°10.47 2°38.609 19.6 305 8.8 101170 57
2007-02-16 10:45 51°10.496 2°38.634 17.8 305 8.8 101170 54
2007-02-16 10:46 51°10.524 2°38.66 17.9 308 8.9 101180 54
2007-02-16 10:47 51°10.551 2°38.685 13.4 286 8.9 101150 54
2007-02-16 10:48 51°10.579 2°38.712 15.4 307 8.9 101170 53
2007-02-16 10:49 51°10.607 2°38.74 9.1 306 9 101170 54
2007-02-16 10:50 51°10.634 2°38.768 11.5 303 9 101160 55
2007-02-16 10:51 51°10.661 2°38.798 13.9 306 9 101190 54
2007-02-16 10:52 51°10.668 2°38.802 12.4 309 9 101170 57
2007-02-16 10:53 51°10.626 2°38.823 15.8 306 9 101150 56
2007-02-16 10:54 51°10.485 2°38.861 18 307 9 101120 53
2007-02-16 10:55 51°10.289 2°38.892 15.8 284 9.1 101130 55
2007-02-16 10:56 51°10.078 2°38.92 16.2 282 9.1 101150 54
2007-02-16 10:57 51°9.866 2°38.949 15.1 280 9.1 101180 56
2007-02-16 10:58 51°9.684 2°38.978 12.7 324 9.2 101200 55
2007-02-16 10:59 51°9.568 2°39.008 13.2 286 9.2 101210 53
2007-02-16 11:00 51°9.477 2°39.038 12.4 303 9.3 101210 53
2007-02-16 11:01 51°9.418 2°39.065 11.2 281 9.3 101220 53
2007-02-16 11:02 51°9.376 2°39.081 9.2 306 9.3 101200 53
2007-02-16 11:03 51°9.342 2°39.11 10.2 304 9.4 101210 53
2007-02-16 11:04 51°9.316 2°39.135 10.2 282 9.4 101200 53
2007-02-16 11:05 51°9.304 2°39.151 11.1 304 9.4 101190 52
2007-02-16 11:06 51°9.305 2°39.164 10.6 309 9.5 101190 52
2007-02-16 11:07 51°9.313 2°39.176 10.4 306 9.5 101180 51
2007-02-16 11:08 51°9.327 2°39.189 8.2 282 9.5 101190 53
2007-02-16 11:09 51°9.342 2°39.205 13.5 308 9.5 101210 54
2007-02-16 11:10 51°9.361 2°39.223 11.9 284 9.5 101220 51
2007-02-16 11:11 51°9.38 2°39.243 11.1 301 9.6 101230 53
2007-02-16 11:12 51°9.399 2°39.266 9.2 283 9.5 101230 54
2007-02-16 11:13 51°9.419 2°39.29 11.8 281 9.5 101210 53
2007-02-16 11:14 51°9.439 2°39.316 10.6 309 9.5 101210 53
2007-02-16 11:15 51°9.46 2°39.343 8.4 282 9.6 101210 52
2007-02-16 11:16 51°9.48 2°39.37 6.6 311 9.6 101200 52
2007-02-16 11:17 51°9.496 2°39.369 11 287 9.6 101210 53
2007-02-16 11:18 51°9.506 2°39.334 11.7 309 9.6 101200 52
2007-02-16 11:19 51°9.515 2°39.294 10.7 278 9.6 101200 53
2007-02-16 11:20 51°9.521 2°39.198 12.3 307 9.6 101200 55
2007-02-16 11:21 51°9.513 2°39.087 11.7 307 9.5 101190 53
2007-02-16 11:22 51°9.494 2°38.974 9.5 308 9.5 101190 53
2007-02-16 11:23 51°9.483 2°38.894 11.5 310 9.5 101180 53
2007-02-16 11:24 51°9.48 2°38.821 11.7 277 9.5 101180 54
2007-02-16 11:25 51°9.484 2°38.741 13 304 9.5 101180 52
2007-02-16 11:26 51°9.485 2°38.661 13.3 283 9.6 101160 51
2007-02-16 11:27 51°9.483 2°38.584 10.7 301 9.6 101180 53
2007-02-16 11:28 51°9.477 2°38.508 12.6 305 9.6 101190 54
2007-02-16 11:29 51°9.469 2°38.433 11.5 311 9.6 101180 53
2007-02-16 11:30 51°9.464 2°38.359 12.2 308 9.6 101180 53
2007-02-16 11:31 51°9.458 2°38.287 13.1 309 9.6 101170 51
2007-02-16 11:32 51°9.451 2°38.215 13.2 304 9.6 101170 50
2007-02-16 11:33 51°9.443 2°38.142 11.7 285 9.7 101180 54
2007-02-16 11:34 51°9.436 2°38.069 14.8 310 9.6 101180 53
2007-02-16 11:35 51°9.432 2°37.996 12 302 9.6 101170 51
2007-02-16 11:36 51°9.425 2°37.925 11.9 310 9.6 101180 52
2007-02-16 11:37 51°9.417 2°37.853 12.9 282 9.6 101180 54
2007-02-16 11:38 51°9.412 2°37.781 12.4 306 9.6 101180 53
2007-02-16 11:39 51°9.406 2°37.713 13.2 302 9.6 101180 50
2007-02-16 11:40 51°9.399 2°37.647 11.9 283 9.6 101170 52
2007-02-16 11:41 51°9.389 2°37.581 13.6 304 9.6 101150 53
2007-02-16 11:42 51°9.38 2°37.513 12.2 279 9.6 101150 50
2007-02-16 11:43 51°9.369 2°37.446 12.2 305 9.6 101170 54
2007-02-16 11:44 51°9.36 2°37.377 13.9 304 9.5 101180 51
2007-02-16 11:45 51°9.357 2°37.305 8.7 307 9.5 101170 51
2007-02-16 11:46 51°9.362 2°37.233 10.2 305 9.5 101130 52
2007-02-16 11:47 51°9.377 2°37.17 12.6 50 9.5 101090 52
2007-02-16 11:48 51°9.414 2°37.12 8 56 9.5 101080 51
2007-02-16 11:49 51°9.477 2°37.108 12.7 76 9.5 101130 53
2007-02-16 11:50 51°9.544 2°37.143 13.9 34 9.5 101130 53
2007-02-16 11:51 51°9.595 2°37.199 13.1 28 9.5 101150 53
2007-02-16 11:52 51°9.633 2°37.258 13.7 17 9.5 101170 51
2007-02-16 11:53 51°9.664 2°37.313 15.1 7 9.4 101160 53
2007-02-16 11:54 51°9.687 2°37.473 15.4 354 9.4 101170 52
2007-02-16 11:55 51°9.691 2°37.795 17.9 351 9.4 101170 54
2007-02-16 11:56 51°9.672 2°38.147 17.4 354 9.4 101190 52
2007-02-16 11:57 51°9.646 2°38.505 18.9 350 9.5 101130 53
2007-02-16 11:58 51°9.62 2°38.857 16 350 9.5 101200 52
2007-02-16 11:59 51°9.594 2°39.207 18.1 350 9.6 101170 54
2007-02-16 12:00 51°9.571 2°39.558 16.5 351 9.5 101160 52
2007-02-16 12:01 51°9.551 2°39.921 16.5 348 9.6 101180 52
2007-02-16 12:02 51°9.528 2°40.294 16.4 350 9.6 101170 53
2007-02-16 12:03 51°9.515 2°40.669 15.8 351 9.6 101190 53
2007-02-16 12:04 51°9.502 2°41.044 13.3 351 9.5 101190 52
2007-02-16 12:05 51°9.49 2°41.417 16.6 348 9.5 101170 53
2007-02-16 12:06 51°9.477 2°41.79 16 284 9.6 101090 52
2007-02-16 12:07 51°9.469 2°42.162 14.3 284 9.6 101070 54
2007-02-16 12:08 51°9.457 2°42.388 11.3 279 9.5 101100 52
2007-02-16 12:09 51°9.456 2°42.433 9.1 280 9.5 101120 54
2007-02-16 12:10 51°9.461 2°42.446 8.2 280 9.5 101150 53
2007-02-16 12:11 51°9.466 2°42.452 9.7 306 9.5 101170 52
2007-02-16 12:12 51°9.475 2°42.456 9.7 280 9.5 101180 53
2007-02-16 12:13 51°9.484 2°42.427 7.5 76 9.5 101140 52
2007-02-16 12:14 51°9.531 2°42.24 7.4 285 9.6 101180 51
2007-02-16 12:15 51°9.608 2°41.932 11 282 9.6 101200 53
2007-02-16 12:16 51°9.676 2°41.606 7.6 282 9.6 101190 52
2007-02-16 12:17 51°9.712 2°41.357 8.4 278 9.6 101190 54
2007-02-16 12:18 51°9.719 2°41.235 10.8 277 9.6 101180 56
2007-02-16 12:19 51°9.717 2°41.16 10.6 279 9.5 101160 54
2007-02-16 12:20 51°9.737 2°41.052 9 278 9.5 101170 57
2007-02-16 12:21 51°9.775 2°40.93 6.5 283 9.4 101170 55
2007-02-16 12:22 51°9.807 2°40.805 7.7 279 9.4 101180 55
2007-02-16 12:23 51°9.834 2°40.719 7 286 9.4 101170 56
2007-02-16 12:24 51°9.844 2°40.656 12.8 280 9.4 101150 55
2007-02-16 12:25 51°9.845 2°40.602 12.7 283 9.4 101170 54
2007-02-16 12:26 51°9.837 2°40.551 9.6 281 9.4 101140 56
2007-02-16 12:27 51°9.833 2°40.474 12.1 286 9.4 101130 55
2007-02-16 12:28 51°9.831 2°40.383 9.3 283 9.3 101140 56
2007-02-16 12:29 51°9.817 2°40.299 10.2 280 9.3 101130 57
2007-02-16 12:30 51°9.795 2°40.215 10.9 279 9.3 101120 55
2007-02-16 12:31 51°9.774 2°40.13 10.7 281 9.3 101120 56
2007-02-16 12:32 51°9.753 2°40.043 10.3 287 9.3 101130 56
2007-02-16 12:33 51°9.734 2°39.956 11 282 9.3 101150 57
2007-02-16 12:34 51°9.715 2°39.87 11.3 285 9.3 101140 57
2007-02-16 12:35 51°9.695 2°39.783 10.6 281 9.3 101120 57
2007-02-16 12:36 51°9.676 2°39.696 9.5 280 9.3 101120 57
2007-02-16 12:37 51°9.656 2°39.608 11.1 282 9.3 101110 56
2007-02-16 12:38 51°9.636 2°39.519 9.4 284 9.3 101110 54
2007-02-16 12:39 51°9.615 2°39.43 10 283 9.4 101090 56
2007-02-16 12:40 51°9.594 2°39.34 10.7 281 9.3 101090 56
2007-02-16 12:41 51°9.573 2°39.249 10.6 284 9.3 101110 57
2007-02-16 12:42 51°9.555 2°39.159 11.2 281 9.3 101110 56
2007-02-16 12:43 51°9.536 2°39.069 10.5 284 9.3 101080 55
2007-02-16 12:44 51°9.519 2°38.976 10.7 286 9.4 101090 55
2007-02-16 12:45 51°9.517 2°38.876 11.3 302 9.4 101130 57
2007-02-16 12:46 51°9.537 2°38.775 5.5 285 9.4 101170 56
2007-02-16 12:47 51°9.574 2°38.686 9 74 9.4 101160 55
2007-02-16 12:48 51°9.627 2°38.633 5.4 79 9.4 101140 56
2007-02-16 12:49 51°9.696 2°38.643 9.1 36 9.5 101150 55
2007-02-16 12:50 51°9.752 2°38.702 10.6 24 9.4 101140 55
2007-02-16 12:51 51°9.774 2°38.799 10.2 353 9.4 101150 55
2007-02-16 12:52 51°9.751 2°38.879 9.8 280 9.4 101130 57
2007-02-16 12:53 51°9.749 2°38.903 9.9 282 9.4 101140 55
2007-02-16 12:54 51°9.762 2°38.914 11.1 308 9.4 101130 54
2007-02-16 12:55 51°9.769 2°38.896 10.6 310 9.4 101130 56
2007-02-16 12:56 51°9.766 2°38.861 10.5 303 9.4 101120 55
2007-02-16 12:57 51°9.767 2°38.841 10.3 307 9.4 101120 56
2007-02-16 12:58 51°9.771 2°38.83 9.2 305 9.4 101110 57
2007-02-16 12:59 51°9.779 2°38.825 9.5 309 9.4 101110 57
2007-02-16 13:00 51°9.777 2°38.809 10.1 305 9.4 101100 57
2007-02-16 13:01 51°9.733 2°38.838 12.4 345 9.4 101100 55
2007-02-16 13:02 51°9.772 2°39.003 12.6 10 9.4 101060 56
2007-02-16 13:03 51°9.868 2°39.308 10.7 6 9.3 101070 57
2007-02-16 13:04 51°9.957 2°39.616 11.4 9 9.4 101130 57
2007-02-16 13:05 51°10.053 2°39.919 10.6 4 9.4 101130 57
2007-02-16 13:06 51°10.149 2°40.222 9.9 5 9.4 101130 56
2007-02-16 13:07 51°10.245 2°40.526 9.7 4 9.3 101140 59
2007-02-16 13:08 51°10.342 2°40.829 11.4 2 9.3 101130 56
2007-02-16 13:09 51°10.44 2°41.132 10.6 2 9.3 101110 57
2007-02-16 13:10 51°10.537 2°41.436 12.6 360 9.3 101110 59
2007-02-16 13:11 51°10.632 2°41.742 11.7 6 9.3 101100 57
2007-02-16 13:12 51°10.728 2°42.048 11.2 4 9.4 101080 56
2007-02-16 13:13 51°10.822 2°42.351 11.6 3 9.4 101080 56
2007-02-16 13:14 51°10.917 2°42.655 10.1 4 9.5 101080 56
2007-02-16 13:15 51°11.004 2°42.965 12.9 1 9.6 101080 56
2007-02-16 13:16 51°11.084 2°43.277 9.9 -999 9.6 101080 55
2007-02-16 13:17 51°11.165 2°43.589 10.6 1 9.6 101090 56
2007-02-16 13:18 51°11.247 2°43.903 11.3 358 9.7 101070 54
2007-02-16 13:19 51°11.331 2°44.219 9 360 9.7 101070 54
2007-02-16 13:20 51°11.413 2°44.534 8.9 3 9.7 101090 56
2007-02-16 13:21 51°11.496 2°44.849 9.8 3 9.6 101140 56
2007-02-16 13:22 51°11.579 2°45.162 11.3 1 9.7 101110 55
2007-02-16 13:23 51°11.663 2°45.475 11.9 359 9.7 101080 54
2007-02-16 13:24 51°11.748 2°45.789 13.4 1 9.8 101080 53
2007-02-16 13:25 51°11.834 2°46.103 11.5 1 9.9 101110 54
2007-02-16 13:26 51°11.918 2°46.417 13.3 1 9.9 101120 53
2007-02-16 13:27 51°12.003 2°46.728 11.7 6 10 101110 51
2007-02-16 13:28 51°12.087 2°47.039 11.6 3 10.1 101120 52
2007-02-16 13:29 51°12.173 2°47.35 12 3 10.1 101080 52
2007-02-16 13:30 51°12.263 2°47.653 12.2 357 10.1 101130 50
2007-02-16 13:31 51°12.352 2°47.944 8.8 5 10.1 101130 51
2007-02-16 13:32 51°12.439 2°48.235 9.2 360 10.1 101140 51
2007-02-16 13:33 51°12.527 2°48.526 7.3 1 10.1 101140 51
2007-02-16 13:34 51°12.618 2°48.814 8.3 359 10.1 101150 50
2007-02-16 13:35 51°12.717 2°49.096 8.8 -999 10.1 101150 54
2007-02-16 13:36 51°12.816 2°49.378 9.8 357 9.9 101150 54
2007-02-16 13:37 51°12.918 2°49.657 8.6 1 10 101140 53
2007-02-16 13:38 51°13.024 2°49.934 9.3 3 10.1 101150 53
2007-02-16 13:39 51°13.129 2°50.211 8.7 2 10.2 101150 52
2007-02-16 13:40 51°13.233 2°50.487 7.9 2 10.2 101150 51
2007-02-16 13:41 51°13.337 2°50.756 7.6 354 10.3 101160 52
2007-02-16 13:42 51°13.444 2°51.02 8.9 358 10.3 101150 52
2007-02-16 13:43 51°13.554 2°51.282 7.3 359 10.3 101150 51
2007-02-16 13:44 51°13.668 2°51.541 6.4 -999 10.3 101150 53
2007-02-16 13:45 51°13.781 2°51.8 6.6 6 10.2 101150 52
2007-02-16 13:46 51°13.894 2°52.058 8.4 5 10.3 101150 49
2007-02-16 13:47 51°14.005 2°52.314 7.3 -999 10.4 101140 50
2007-02-16 13:48 51°14.115 2°52.571 9.1 356 10.5 101120 49
2007-02-16 13:49 51°14.22 2°52.832 10.6 359 10.5 101100 49
2007-02-16 13:50 51°14.325 2°53.092 9.9 357 10.5 101100 47
2007-02-16 13:51 51°14.406 2°53.367 10.2 348 10.6 101090 47
2007-02-16 13:52 51°14.44 2°53.664 11.7 346 10.7 101080 46
2007-02-16 13:53 51°14.446 2°53.962 13.7 347 10.8 101070 47
2007-02-16 13:54 51°14.441 2°54.255 12.2 344 10.9 101060 46
2007-02-16 13:55 51°14.433 2°54.546 14.7 347 11 101060 44
2007-02-16 13:56 51°14.409 2°54.835 13.2 342 11.1 101070 44
2007-02-16 13:57 51°14.347 2°55.093 13.9 336 11.2 101070 44
2007-02-16 13:58 51°14.243 2°55.302 12.2 327 11.1 101070 46
2007-02-16 13:59 51°14.109 2°55.435 13.1 323 11 101030 45
2007-02-16 14:00 51°13.971 2°55.533 10.6 323 11 101040 46
2007-02-16 14:01 51°13.869 2°55.611 9.3 305 11 101080 46
2007-02-16 14:02 51°13.794 2°55.676 9.4 324 10.9 101070 47
2007-02-16 14:03 51°13.71 2°55.782 9.2 329 10.9 101070 47
2007-02-16 14:04 51°13.65 2°55.91 8.2 331 10.9 101080 46
2007-02-16 14:05 51°13.615 2°56.009 6.4 341 10.8 101090 47
2007-02-16 14:06 51°13.601 2°56.081 4.8 359 10.9 101110 48
2007-02-16 14:07 51°13.598 2°56.092 4.2 349 10.9 101160 45